sensor_id;sensor_type;location;lat;lon;timestamp;P1;durP1;ratioP1;P2;durP2;ratioP2
36391;SDS011;22639;42.690;23.356;2023-02-10T00:00:09;11.90;;;7.07;;
36391;SDS011;22639;42.690;23.356;2023-02-10T00:02:34;17.90;;;9.13;;
36391;SDS011;22639;42.690;23.356;2023-02-10T00:04:59;17.20;;;7.33;;
36391;SDS011;22639;42.690;23.356;2023-02-10T00:07:25;16.90;;;9.13;;
36391;SDS011;22639;42.690;23.356;2023-02-10T00:09:50;18.90;;;9.93;;
36391;SDS011;22639;42.690;23.356;2023-02-10T00:12:15;28.50;;;14.00;;
36391;SDS011;22639;42.690;23.356;2023-02-10T00:14:41;20.73;;;11.53;;
36391;SDS011;22639;42.690;23.356;2023-02-10T00:17:06;24.27;;;12.07;;
36391;SDS011;22639;42.690;23.356;2023-02-10T00:19:31;26.00;;;13.13;;
36391;SDS011;22639;42.690;23.356;2023-02-10T00:21:58;28.80;;;12.47;;
36391;SDS011;22639;42.690;23.356;2023-02-10T00:24:23;26.13;;;13.83;;
36391;SDS011;22639;42.690;23.356;2023-02-10T00:26:49;30.97;;;14.63;;
36391;SDS011;22639;42.690;23.356;2023-02-10T00:29:14;25.50;;;13.77;;
36391;SDS011;22639;42.690;23.356;2023-02-10T00:31:40;25.40;;;12.50;;
36391;SDS011;22639;42.690;23.356;2023-02-10T00:34:05;28.30;;;13.90;;
36391;SDS011;22639;42.690;23.356;2023-02-10T00:36:31;23.07;;;11.20;;
36391;SDS011;22639;42.690;23.356;2023-02-10T00:38:56;21.67;;;12.10;;
36391;SDS011;22639;42.690;23.356;2023-02-10T00:41:22;22.60;;;12.73;;
36391;SDS011;22639;42.690;23.356;2023-02-10T00:43:47;27.30;;;13.53;;
36391;SDS011;22639;42.690;23.356;2023-02-10T00:46:13;22.33;;;12.07;;
36391;SDS011;22639;42.690;23.356;2023-02-10T00:48:38;24.97;;;11.33;;
36391;SDS011;22639;42.690;23.356;2023-02-10T00:51:04;25.90;;;13.63;;
36391;SDS011;22639;42.690;23.356;2023-02-10T00:53:30;22.97;;;10.37;;
36391;SDS011;22639;42.690;23.356;2023-02-10T00:55:55;20.80;;;12.10;;
36391;SDS011;22639;42.690;23.356;2023-02-10T00:58:21;22.83;;;13.13;;
36391;SDS011;22639;42.690;23.356;2023-02-10T01:00:46;27.50;;;12.43;;
36391;SDS011;22639;42.690;23.356;2023-02-10T01:03:11;20.87;;;10.80;;
36391;SDS011;22639;42.690;23.356;2023-02-10T01:05:37;27.93;;;11.47;;
36391;SDS011;22639;42.690;23.356;2023-02-10T01:08:02;23.03;;;11.53;;
36391;SDS011;22639;42.690;23.356;2023-02-10T01:10:27;19.93;;;10.83;;
36391;SDS011;22639;42.690;23.356;2023-02-10T01:12:53;20.30;;;11.67;;
36391;SDS011;22639;42.690;23.356;2023-02-10T01:15:18;19.40;;;10.10;;
36391;SDS011;22639;42.690;23.356;2023-02-10T01:17:43;18.17;;;10.43;;
36391;SDS011;22639;42.690;23.356;2023-02-10T01:20:09;20.57;;;10.20;;
36391;SDS011;22639;42.690;23.356;2023-02-10T01:22:34;19.47;;;9.90;;
36391;SDS011;22639;42.690;23.356;2023-02-10T01:25:00;23.23;;;10.10;;
36391;SDS011;22639;42.690;23.356;2023-02-10T01:27:25;17.83;;;12.03;;
36391;SDS011;22639;42.690;23.356;2023-02-10T01:29:51;19.57;;;11.30;;
36391;SDS011;22639;42.690;23.356;2023-02-10T01:32:16;26.57;;;12.33;;
36391;SDS011;22639;42.690;23.356;2023-02-10T01:34:41;19.90;;;12.17;;
36391;SDS011;22639;42.690;23.356;2023-02-10T01:37:07;17.27;;;9.80;;
36391;SDS011;22639;42.690;23.356;2023-02-10T01:39:32;21.60;;;11.57;;
36391;SDS011;22639;42.690;23.356;2023-02-10T01:41:57;26.23;;;12.10;;
36391;SDS011;22639;42.690;23.356;2023-02-10T01:46:48;22.53;;;12.00;;
36391;SDS011;22639;42.690;23.356;2023-02-10T01:49:17;23.60;;;12.50;;
36391;SDS011;22639;42.690;23.356;2023-02-10T01:51:45;23.33;;;12.47;;
36391;SDS011;22639;42.690;23.356;2023-02-10T01:54:12;25.87;;;14.73;;
36391;SDS011;22639;42.690;23.356;2023-02-10T01:56:38;24.90;;;12.73;;
36391;SDS011;22639;42.690;23.356;2023-02-10T01:59:03;34.27;;;17.83;;
36391;SDS011;22639;42.690;23.356;2023-02-10T02:01:29;34.67;;;14.27;;
36391;SDS011;22639;42.690;23.356;2023-02-10T02:03:54;29.70;;;15.93;;
36391;SDS011;22639;42.690;23.356;2023-02-10T02:06:19;22.43;;;11.07;;
36391;SDS011;22639;42.690;23.356;2023-02-10T02:08:45;26.10;;;14.23;;
36391;SDS011;22639;42.690;23.356;2023-02-10T02:26:36;21.87;;;10.73;;
36391;SDS011;22639;42.690;23.356;2023-02-10T02:33:58;33.47;;;17.10;;
36391;SDS011;22639;42.690;23.356;2023-02-10T02:36:29;28.93;;;16.10;;
36391;SDS011;22639;42.690;23.356;2023-02-10T02:39:00;39.47;;;21.97;;
36391;SDS011;22639;42.690;23.356;2023-02-10T02:41:28;30.30;;;19.37;;
36391;SDS011;22639;42.690;23.356;2023-02-10T02:43:54;31.40;;;17.67;;
36391;SDS011;22639;42.690;23.356;2023-02-10T02:51:44;37.63;;;19.87;;
36391;SDS011;22639;42.690;23.356;2023-02-10T03:01:55;28.10;;;13.57;;
36391;SDS011;22639;42.690;23.356;2023-02-10T03:04:21;22.73;;;12.83;;
36391;SDS011;22639;42.690;23.356;2023-02-10T03:06:47;22.27;;;13.77;;
36391;SDS011;22639;42.690;23.356;2023-02-10T03:09:13;23.23;;;12.40;;
36391;SDS011;22639;42.690;23.356;2023-02-10T03:11:38;18.50;;;12.10;;
36391;SDS011;22639;42.690;23.356;2023-02-10T03:14:04;19.97;;;11.13;;
36391;SDS011;22639;42.690;23.356;2023-02-10T03:16:29;19.73;;;11.90;;
36391;SDS011;22639;42.690;23.356;2023-02-10T03:18:54;21.47;;;12.57;;
36391;SDS011;22639;42.690;23.356;2023-02-10T03:21:19;25.90;;;13.27;;
36391;SDS011;22639;42.690;23.356;2023-02-10T03:23:45;19.53;;;11.83;;
36391;SDS011;22639;42.690;23.356;2023-02-10T03:26:10;23.73;;;11.47;;
36391;SDS011;22639;42.690;23.356;2023-02-10T03:28:36;20.60;;;10.83;;
36391;SDS011;22639;42.690;23.356;2023-02-10T03:31:02;19.00;;;11.17;;
36391;SDS011;22639;42.690;23.356;2023-02-10T03:33:27;24.30;;;12.27;;
36391;SDS011;22639;42.690;23.356;2023-02-10T03:35:52;22.53;;;11.13;;
36391;SDS011;22639;42.690;23.356;2023-02-10T03:38:17;22.53;;;13.33;;
36391;SDS011;22639;42.690;23.356;2023-02-10T03:40:43;23.97;;;12.73;;
36391;SDS011;22639;42.690;23.356;2023-02-10T03:43:08;26.37;;;14.20;;
36391;SDS011;22639;42.690;23.356;2023-02-10T03:45:33;21.27;;;11.17;;
36391;SDS011;22639;42.690;23.356;2023-02-10T03:47:59;24.50;;;11.57;;
36391;SDS011;22639;42.690;23.356;2023-02-10T03:50:24;16.93;;;10.03;;
36391;SDS011;22639;42.690;23.356;2023-02-10T03:52:49;22.23;;;11.80;;
36391;SDS011;22639;42.690;23.356;2023-02-10T03:55:14;15.10;;;9.83;;
36391;SDS011;22639;42.690;23.356;2023-02-10T03:57:42;20.40;;;12.03;;
36391;SDS011;22639;42.690;23.356;2023-02-10T04:00:08;19.53;;;11.13;;
36391;SDS011;22639;42.690;23.356;2023-02-10T04:02:33;26.40;;;12.47;;
36391;SDS011;22639;42.690;23.356;2023-02-10T04:04:58;24.77;;;13.53;;
36391;SDS011;22639;42.690;23.356;2023-02-10T04:07:23;25.27;;;15.00;;
36391;SDS011;22639;42.690;23.356;2023-02-10T04:09:49;32.43;;;21.77;;
36391;SDS011;22639;42.690;23.356;2023-02-10T04:12:14;33.33;;;20.43;;
36391;SDS011;22639;42.690;23.356;2023-02-10T04:14:39;22.70;;;12.20;;
36391;SDS011;22639;42.690;23.356;2023-02-10T04:17:04;12.50;;;8.77;;
36391;SDS011;22639;42.690;23.356;2023-02-10T04:19:30;27.23;;;13.87;;
36391;SDS011;22639;42.690;23.356;2023-02-10T04:21:55;24.67;;;11.80;;
36391;SDS011;22639;42.690;23.356;2023-02-10T04:24:20;20.80;;;12.03;;
36391;SDS011;22639;42.690;23.356;2023-02-10T04:26:46;21.50;;;11.67;;
36391;SDS011;22639;42.690;23.356;2023-02-10T04:29:11;28.03;;;14.27;;
36391;SDS011;22639;42.690;23.356;2023-02-10T04:31:36;27.93;;;15.40;;
36391;SDS011;22639;42.690;23.356;2023-02-10T04:34:01;24.47;;;15.00;;
36391;SDS011;22639;42.690;23.356;2023-02-10T04:36:27;26.07;;;13.50;;
36391;SDS011;22639;42.690;23.356;2023-02-10T04:38:52;20.73;;;12.00;;
36391;SDS011;22639;42.690;23.356;2023-02-10T04:41:17;24.73;;;14.43;;
36391;SDS011;22639;42.690;23.356;2023-02-10T04:43:42;22.10;;;13.80;;
36391;SDS011;22639;42.690;23.356;2023-02-10T04:46:08;24.20;;;13.93;;
36391;SDS011;22639;42.690;23.356;2023-02-10T04:48:33;27.40;;;14.43;;
36391;SDS011;22639;42.690;23.356;2023-02-10T04:50:59;28.73;;;15.13;;
36391;SDS011;22639;42.690;23.356;2023-02-10T04:53:24;31.43;;;15.80;;
36391;SDS011;22639;42.690;23.356;2023-02-10T04:55:50;29.97;;;13.90;;
36391;SDS011;22639;42.690;23.356;2023-02-10T04:58:15;28.90;;;14.70;;
36391;SDS011;22639;42.690;23.356;2023-02-10T05:00:40;23.13;;;8.97;;
36391;SDS011;22639;42.690;23.356;2023-02-10T05:03:05;27.80;;;14.47;;
36391;SDS011;22639;42.690;23.356;2023-02-10T05:05:31;32.90;;;14.47;;
36391;SDS011;22639;42.690;23.356;2023-02-10T05:07:56;35.23;;;17.83;;
36391;SDS011;22639;42.690;23.356;2023-02-10T05:10:21;28.53;;;13.70;;
36391;SDS011;22639;42.690;23.356;2023-02-10T05:12:47;24.17;;;14.13;;
36391;SDS011;22639;42.690;23.356;2023-02-10T05:15:12;25.27;;;14.37;;
36391;SDS011;22639;42.690;23.356;2023-02-10T05:17:38;18.50;;;11.40;;
36391;SDS011;22639;42.690;23.356;2023-02-10T05:20:04;18.70;;;11.40;;
36391;SDS011;22639;42.690;23.356;2023-02-10T05:22:29;13.90;;;8.43;;
36391;SDS011;22639;42.690;23.356;2023-02-10T05:24:57;14.77;;;8.47;;
36391;SDS011;22639;42.690;23.356;2023-02-10T05:27:23;23.23;;;10.20;;
36391;SDS011;22639;42.690;23.356;2023-02-10T05:29:48;18.20;;;10.60;;
36391;SDS011;22639;42.690;23.356;2023-02-10T05:32:14;21.83;;;11.63;;
36391;SDS011;22639;42.690;23.356;2023-02-10T05:34:39;23.00;;;9.97;;
36391;SDS011;22639;42.690;23.356;2023-02-10T05:37:04;29.70;;;14.50;;
36391;SDS011;22639;42.690;23.356;2023-02-10T05:39:30;34.60;;;17.77;;
36391;SDS011;22639;42.690;23.356;2023-02-10T05:41:56;30.97;;;17.23;;
36391;SDS011;22639;42.690;23.356;2023-02-10T05:44:22;45.37;;;22.67;;
36391;SDS011;22639;42.690;23.356;2023-02-10T05:46:48;33.17;;;19.53;;
36391;SDS011;22639;42.690;23.356;2023-02-10T05:49:13;49.23;;;25.13;;
36391;SDS011;22639;42.690;23.356;2023-02-10T05:51:39;33.40;;;18.47;;
36391;SDS011;22639;42.690;23.356;2023-02-10T05:54:04;36.90;;;20.77;;
36391;SDS011;22639;42.690;23.356;2023-02-10T05:56:30;43.47;;;24.20;;
36391;SDS011;22639;42.690;23.356;2023-02-10T05:58:55;44.53;;;23.50;;
36391;SDS011;22639;42.690;23.356;2023-02-10T06:01:20;39.07;;;23.37;;
36391;SDS011;22639;42.690;23.356;2023-02-10T06:03:49;39.63;;;21.30;;
36391;SDS011;22639;42.690;23.356;2023-02-10T06:06:14;42.70;;;22.37;;
36391;SDS011;22639;42.690;23.356;2023-02-10T06:08:39;34.43;;;20.53;;
36391;SDS011;22639;42.690;23.356;2023-02-10T06:11:05;44.73;;;23.77;;
36391;SDS011;22639;42.690;23.356;2023-02-10T06:13:30;46.30;;;23.20;;
36391;SDS011;22639;42.690;23.356;2023-02-10T06:15:55;47.07;;;24.40;;
36391;SDS011;22639;42.690;23.356;2023-02-10T06:18:21;42.67;;;22.57;;
36391;SDS011;22639;42.690;23.356;2023-02-10T06:20:47;44.30;;;24.33;;
36391;SDS011;22639;42.690;23.356;2023-02-10T06:23:12;42.83;;;22.50;;
36391;SDS011;22639;42.690;23.356;2023-02-10T06:25:38;50.80;;;29.83;;
36391;SDS011;22639;42.690;23.356;2023-02-10T06:28:04;44.87;;;25.63;;
36391;SDS011;22639;42.690;23.356;2023-02-10T06:30:29;40.00;;;24.27;;
36391;SDS011;22639;42.690;23.356;2023-02-10T06:32:54;47.23;;;26.43;;
36391;SDS011;22639;42.690;23.356;2023-02-10T06:35:20;44.90;;;24.43;;
36391;SDS011;22639;42.690;23.356;2023-02-10T06:37:45;47.73;;;25.47;;
36391;SDS011;22639;42.690;23.356;2023-02-10T06:40:10;50.20;;;27.40;;
36391;SDS011;22639;42.690;23.356;2023-02-10T06:42:36;46.20;;;27.97;;
36391;SDS011;22639;42.690;23.356;2023-02-10T06:45:02;54.50;;;28.73;;
36391;SDS011;22639;42.690;23.356;2023-02-10T06:47:27;48.67;;;29.13;;
36391;SDS011;22639;42.690;23.356;2023-02-10T06:49:53;54.27;;;30.87;;
36391;SDS011;22639;42.690;23.356;2023-02-10T06:52:18;48.37;;;28.90;;
36391;SDS011;22639;42.690;23.356;2023-02-10T06:54:43;56.13;;;28.20;;
36391;SDS011;22639;42.690;23.356;2023-02-10T06:57:09;52.63;;;29.70;;
36391;SDS011;22639;42.690;23.356;2023-02-10T06:59:36;44.23;;;26.10;;
36391;SDS011;22639;42.690;23.356;2023-02-10T07:02:03;40.77;;;25.67;;
36391;SDS011;22639;42.690;23.356;2023-02-10T07:04:28;46.60;;;25.97;;
36391;SDS011;22639;42.690;23.356;2023-02-10T07:06:54;45.97;;;26.23;;
36391;SDS011;22639;42.690;23.356;2023-02-10T07:09:20;48.33;;;28.57;;
36391;SDS011;22639;42.690;23.356;2023-02-10T07:11:45;44.53;;;25.00;;
36391;SDS011;22639;42.690;23.356;2023-02-10T07:14:11;38.13;;;23.87;;
36391;SDS011;22639;42.690;23.356;2023-02-10T07:16:36;43.73;;;27.80;;
36391;SDS011;22639;42.690;23.356;2023-02-10T07:19:01;44.90;;;26.37;;
36391;SDS011;22639;42.690;23.356;2023-02-10T07:21:26;44.77;;;25.63;;
36391;SDS011;22639;42.690;23.356;2023-02-10T07:23:51;46.30;;;25.80;;
36391;SDS011;22639;42.690;23.356;2023-02-10T07:26:17;46.57;;;28.13;;
36391;SDS011;22639;42.690;23.356;2023-02-10T07:28:45;43.07;;;27.97;;
36391;SDS011;22639;42.690;23.356;2023-02-10T07:31:11;47.70;;;29.37;;
36391;SDS011;22639;42.690;23.356;2023-02-10T07:33:36;38.70;;;25.30;;
36391;SDS011;22639;42.690;23.356;2023-02-10T07:36:02;46.87;;;28.33;;
36391;SDS011;22639;42.690;23.356;2023-02-10T07:38:29;49.17;;;28.40;;
36391;SDS011;22639;42.690;23.356;2023-02-10T07:40:57;47.63;;;31.33;;
36391;SDS011;22639;42.690;23.356;2023-02-10T07:43:23;50.63;;;32.67;;
36391;SDS011;22639;42.690;23.356;2023-02-10T07:45:48;50.00;;;31.83;;
36391;SDS011;22639;42.690;23.356;2023-02-10T07:48:15;57.00;;;35.30;;
36391;SDS011;22639;42.690;23.356;2023-02-10T07:50:41;52.60;;;35.60;;
36391;SDS011;22639;42.690;23.356;2023-02-10T07:53:06;58.13;;;37.27;;
36391;SDS011;22639;42.690;23.356;2023-02-10T07:55:31;61.07;;;37.27;;
36391;SDS011;22639;42.690;23.356;2023-02-10T07:57:57;59.67;;;33.83;;
36391;SDS011;22639;42.690;23.356;2023-02-10T08:00:22;48.37;;;32.47;;
36391;SDS011;22639;42.690;23.356;2023-02-10T08:02:47;54.97;;;33.60;;
36391;SDS011;22639;42.690;23.356;2023-02-10T08:05:12;51.60;;;34.20;;
36391;SDS011;22639;42.690;23.356;2023-02-10T08:07:38;159.67;;;88.87;;
36391;SDS011;22639;42.690;23.356;2023-02-10T08:10:04;212.37;;;119.77;;
36391;SDS011;22639;42.690;23.356;2023-02-10T08:12:29;58.13;;;37.30;;
36391;SDS011;22639;42.690;23.356;2023-02-10T08:14:54;54.23;;;35.67;;
36391;SDS011;22639;42.690;23.356;2023-02-10T08:17:20;48.50;;;31.40;;
36391;SDS011;22639;42.690;23.356;2023-02-10T08:19:45;51.00;;;34.33;;
36391;SDS011;22639;42.690;23.356;2023-02-10T08:22:10;55.03;;;33.73;;
36391;SDS011;22639;42.690;23.356;2023-02-10T08:24:35;57.87;;;32.43;;
36391;SDS011;22639;42.690;23.356;2023-02-10T08:27:01;57.47;;;34.17;;
36391;SDS011;22639;42.690;23.356;2023-02-10T08:29:26;51.07;;;33.07;;
36391;SDS011;22639;42.690;23.356;2023-02-10T08:31:51;49.30;;;29.93;;
36391;SDS011;22639;42.690;23.356;2023-02-10T08:34:18;49.70;;;29.87;;
36391;SDS011;22639;42.690;23.356;2023-02-10T08:36:43;52.63;;;31.83;;
36391;SDS011;22639;42.690;23.356;2023-02-10T08:39:09;44.50;;;29.43;;
36391;SDS011;22639;42.690;23.356;2023-02-10T08:41:34;44.87;;;29.90;;
36391;SDS011;22639;42.690;23.356;2023-02-10T08:44:00;49.10;;;30.83;;
36391;SDS011;22639;42.690;23.356;2023-02-10T08:46:25;49.33;;;33.03;;
36391;SDS011;22639;42.690;23.356;2023-02-10T08:48:50;46.00;;;33.50;;
36391;SDS011;22639;42.690;23.356;2023-02-10T08:51:16;45.07;;;29.97;;
36391;SDS011;22639;42.690;23.356;2023-02-10T08:53:41;44.07;;;30.27;;
36391;SDS011;22639;42.690;23.356;2023-02-10T08:56:08;42.73;;;29.60;;
36391;SDS011;22639;42.690;23.356;2023-02-10T08:58:34;45.50;;;32.37;;
36391;SDS011;22639;42.690;23.356;2023-02-10T09:00:59;42.20;;;28.77;;
36391;SDS011;22639;42.690;23.356;2023-02-10T09:03:26;48.47;;;30.43;;
36391;SDS011;22639;42.690;23.356;2023-02-10T09:05:51;51.53;;;30.27;;
36391;SDS011;22639;42.690;23.356;2023-02-10T09:08:17;43.47;;;30.27;;
36391;SDS011;22639;42.690;23.356;2023-02-10T09:10:44;47.87;;;33.00;;
36391;SDS011;22639;42.690;23.356;2023-02-10T09:13:10;40.43;;;28.77;;
36391;SDS011;22639;42.690;23.356;2023-02-10T09:15:39;46.37;;;29.33;;
36391;SDS011;22639;42.690;23.356;2023-02-10T09:18:05;43.67;;;29.87;;
36391;SDS011;22639;42.690;23.356;2023-02-10T09:20:30;47.77;;;29.07;;
36391;SDS011;22639;42.690;23.356;2023-02-10T09:22:56;51.43;;;28.87;;
36391;SDS011;22639;42.690;23.356;2023-02-10T09:25:21;48.80;;;30.00;;
36391;SDS011;22639;42.690;23.356;2023-02-10T09:27:47;44.50;;;28.13;;
36391;SDS011;22639;42.690;23.356;2023-02-10T09:30:12;43.50;;;28.13;;
36391;SDS011;22639;42.690;23.356;2023-02-10T09:32:37;38.10;;;26.77;;
36391;SDS011;22639;42.690;23.356;2023-02-10T09:35:02;43.07;;;27.00;;
36391;SDS011;22639;42.690;23.356;2023-02-10T09:37:28;39.77;;;24.37;;
36391;SDS011;22639;42.690;23.356;2023-02-10T09:39:53;53.13;;;33.83;;
36391;SDS011;22639;42.690;23.356;2023-02-10T09:44:51;43.00;;;27.03;;
36391;SDS011;22639;42.690;23.356;2023-02-10T09:55:07;35.03;;;26.47;;
36391;SDS011;22639;42.690;23.356;2023-02-10T09:57:37;45.17;;;27.47;;
36391;SDS011;22639;42.690;23.356;2023-02-10T10:00:05;36.63;;;25.37;;
36391;SDS011;22639;42.690;23.356;2023-02-10T10:02:43;38.10;;;26.20;;
36391;SDS011;22639;42.690;23.356;2023-02-10T10:05:16;41.03;;;25.03;;
36391;SDS011;22639;42.690;23.356;2023-02-10T10:07:45;40.33;;;25.60;;
36391;SDS011;22639;42.690;23.356;2023-02-10T10:12:57;36.77;;;24.00;;
36391;SDS011;22639;42.690;23.356;2023-02-10T10:15:23;36.60;;;24.37;;
36391;SDS011;22639;42.690;23.356;2023-02-10T10:27:55;35.60;;;24.33;;
36391;SDS011;22639;42.690;23.356;2023-02-10T10:30:34;30.20;;;21.47;;
36391;SDS011;22639;42.690;23.356;2023-02-10T10:33:10;36.77;;;22.17;;
36391;SDS011;22639;42.690;23.356;2023-02-10T10:35:39;43.60;;;29.17;;
36391;SDS011;22639;42.690;23.356;2023-02-10T10:41:02;34.80;;;21.77;;
36391;SDS011;22639;42.690;23.356;2023-02-10T10:43:32;35.47;;;21.73;;
36391;SDS011;22639;42.690;23.356;2023-02-10T10:46:05;30.43;;;21.27;;
36391;SDS011;22639;42.690;23.356;2023-02-10T10:48:31;26.10;;;17.90;;
36391;SDS011;22639;42.690;23.356;2023-02-10T10:51:00;25.43;;;18.37;;
36391;SDS011;22639;42.690;23.356;2023-02-10T10:53:41;30.47;;;20.37;;
36391;SDS011;22639;42.690;23.356;2023-02-10T10:56:09;27.33;;;18.57;;
36391;SDS011;22639;42.690;23.356;2023-02-10T10:58:38;30.30;;;20.37;;
36391;SDS011;22639;42.690;23.356;2023-02-10T11:01:04;27.63;;;17.87;;
36391;SDS011;22639;42.690;23.356;2023-02-10T11:03:30;26.30;;;17.93;;
36391;SDS011;22639;42.690;23.356;2023-02-10T11:06:14;28.20;;;18.67;;
36391;SDS011;22639;42.690;23.356;2023-02-10T11:08:45;30.53;;;18.23;;
36391;SDS011;22639;42.690;23.356;2023-02-10T11:11:12;29.47;;;18.63;;
36391;SDS011;22639;42.690;23.356;2023-02-10T11:13:39;29.97;;;19.57;;
36391;SDS011;22639;42.690;23.356;2023-02-10T11:18:33;28.77;;;17.97;;
36391;SDS011;22639;42.690;23.356;2023-02-10T11:21:00;31.13;;;19.10;;
36391;SDS011;22639;42.690;23.356;2023-02-10T11:23:26;26.17;;;18.97;;
36391;SDS011;22639;42.690;23.356;2023-02-10T11:26:25;26.57;;;17.87;;
36391;SDS011;22639;42.690;23.356;2023-02-10T11:28:43;27.70;;;19.37;;
36391;SDS011;22639;42.690;23.356;2023-02-10T11:33:43;28.43;;;17.83;;
36391;SDS011;22639;42.690;23.356;2023-02-10T11:36:19;32.23;;;19.67;;
36391;SDS011;22639;42.690;23.356;2023-02-10T11:38:58;30.30;;;17.97;;
36391;SDS011;22639;42.690;23.356;2023-02-10T11:41:28;30.13;;;20.97;;
36391;SDS011;22639;42.690;23.356;2023-02-10T11:44:01;32.97;;;19.50;;
36391;SDS011;22639;42.690;23.356;2023-02-10T11:46:28;35.03;;;18.80;;
36391;SDS011;22639;42.690;23.356;2023-02-10T11:51:19;32.30;;;20.03;;
36391;SDS011;22639;42.690;23.356;2023-02-10T11:53:44;28.70;;;19.33;;
36391;SDS011;22639;42.690;23.356;2023-02-10T11:56:24;39.60;;;19.77;;
36391;SDS011;22639;42.690;23.356;2023-02-10T12:01:58;32.43;;;19.50;;
36391;SDS011;22639;42.690;23.356;2023-02-10T12:07:13;34.67;;;20.57;;
36391;SDS011;22639;42.690;23.356;2023-02-10T12:09:43;25.87;;;18.03;;
36391;SDS011;22639;42.690;23.356;2023-02-10T12:12:18;28.67;;;18.73;;
36391;SDS011;22639;42.690;23.356;2023-02-10T12:15:07;29.73;;;17.83;;
36391;SDS011;22639;42.690;23.356;2023-02-10T12:17:40;28.60;;;17.73;;
36391;SDS011;22639;42.690;23.356;2023-02-10T12:20:15;24.80;;;17.53;;
36391;SDS011;22639;42.690;23.356;2023-02-10T12:22:57;25.67;;;17.33;;
36391;SDS011;22639;42.690;23.356;2023-02-10T12:25:50;26.77;;;17.80;;
36391;SDS011;22639;42.690;23.356;2023-02-10T12:28:16;22.77;;;16.40;;
36391;SDS011;22639;42.690;23.356;2023-02-10T12:35:55;28.37;;;18.03;;
36391;SDS011;22639;42.690;23.356;2023-02-10T12:38:27;29.03;;;18.30;;
36391;SDS011;22639;42.690;23.356;2023-02-10T12:46:18;28.13;;;19.57;;
36391;SDS011;22639;42.690;23.356;2023-02-10T12:49:11;33.63;;;21.57;;
36391;SDS011;22639;42.690;23.356;2023-02-10T12:51:43;31.57;;;19.43;;
36391;SDS011;22639;42.690;23.356;2023-02-10T12:56:54;28.17;;;19.40;;
36391;SDS011;22639;42.690;23.356;2023-02-10T12:59:29;26.83;;;18.33;;
36391;SDS011;22639;42.690;23.356;2023-02-10T13:02:00;33.67;;;20.40;;
36391;SDS011;22639;42.690;23.356;2023-02-10T13:07:02;34.83;;;21.80;;
36391;SDS011;22639;42.690;23.356;2023-02-10T13:09:38;28.43;;;19.17;;
36391;SDS011;22639;42.690;23.356;2023-02-10T13:14:29;36.00;;;21.83;;
36391;SDS011;22639;42.690;23.356;2023-02-10T13:16:56;36.90;;;22.37;;
36391;SDS011;22639;42.690;23.356;2023-02-10T13:24:27;36.33;;;22.20;;
36391;SDS011;22639;42.690;23.356;2023-02-10T13:26:56;37.77;;;23.23;;
36391;SDS011;22639;42.690;23.356;2023-02-10T13:32:10;32.93;;;21.83;;
36391;SDS011;22639;42.690;23.356;2023-02-10T13:34:42;39.03;;;21.37;;
36391;SDS011;22639;42.690;23.356;2023-02-10T13:39:57;50.17;;;27.93;;
36391;SDS011;22639;42.690;23.356;2023-02-10T13:42:26;36.50;;;22.53;;
36391;SDS011;22639;42.690;23.356;2023-02-10T13:44:59;45.77;;;27.10;;
36391;SDS011;22639;42.690;23.356;2023-02-10T13:52:23;36.43;;;21.20;;
36391;SDS011;22639;42.690;23.356;2023-02-10T13:54:56;38.60;;;20.90;;
36391;SDS011;22639;42.690;23.356;2023-02-10T13:57:29;26.57;;;18.97;;
36391;SDS011;22639;42.690;23.356;2023-02-10T14:00:04;27.40;;;19.20;;
36391;SDS011;22639;42.690;23.356;2023-02-10T14:02:45;32.43;;;17.97;;
36391;SDS011;22639;42.690;23.356;2023-02-10T14:05:24;25.87;;;17.60;;
36391;SDS011;22639;42.690;23.356;2023-02-10T14:07:49;25.93;;;17.87;;
36391;SDS011;22639;42.690;23.356;2023-02-10T14:12:54;30.37;;;18.03;;
36391;SDS011;22639;42.690;23.356;2023-02-10T14:15:24;25.93;;;17.00;;
36391;SDS011;22639;42.690;23.356;2023-02-10T14:18:25;28.83;;;19.33;;
36391;SDS011;22639;42.690;23.356;2023-02-10T14:20:43;32.13;;;17.83;;
36391;SDS011;22639;42.690;23.356;2023-02-10T14:23:18;29.17;;;17.73;;
36391;SDS011;22639;42.690;23.356;2023-02-10T14:25:44;28.07;;;17.97;;
36391;SDS011;22639;42.690;23.356;2023-02-10T14:28:23;23.53;;;14.93;;
36391;SDS011;22639;42.690;23.356;2023-02-10T14:30:52;35.73;;;20.17;;
36391;SDS011;22639;42.690;23.356;2023-02-10T14:33:28;38.50;;;20.83;;
36391;SDS011;22639;42.690;23.356;2023-02-10T14:35:55;38.83;;;19.70;;
36391;SDS011;22639;42.690;23.356;2023-02-10T14:38:24;33.77;;;20.33;;
36391;SDS011;22639;42.690;23.356;2023-02-10T14:40:50;39.17;;;21.10;;
36391;SDS011;22639;42.690;23.356;2023-02-10T14:43:16;35.07;;;21.83;;
36391;SDS011;22639;42.690;23.356;2023-02-10T14:45:44;40.30;;;23.77;;
36391;SDS011;22639;42.690;23.356;2023-02-10T14:48:12;39.93;;;25.07;;
36391;SDS011;22639;42.690;23.356;2023-02-10T14:50:37;45.43;;;25.10;;
36391;SDS011;22639;42.690;23.356;2023-02-10T14:53:03;36.57;;;23.77;;
36391;SDS011;22639;42.690;23.356;2023-02-10T14:55:30;35.23;;;22.80;;
36391;SDS011;22639;42.690;23.356;2023-02-10T14:58:06;42.50;;;23.90;;
36391;SDS011;22639;42.690;23.356;2023-02-10T15:00:32;39.00;;;24.33;;
36391;SDS011;22639;42.690;23.356;2023-02-10T15:02:58;42.00;;;24.53;;
36391;SDS011;22639;42.690;23.356;2023-02-10T15:05:24;45.80;;;25.43;;
36391;SDS011;22639;42.690;23.356;2023-02-10T15:07:51;40.03;;;25.87;;
36391;SDS011;22639;42.690;23.356;2023-02-10T15:12:44;42.87;;;25.93;;
36391;SDS011;22639;42.690;23.356;2023-02-10T15:17:36;48.50;;;29.47;;
36391;SDS011;22639;42.690;23.356;2023-02-10T15:22:41;42.80;;;27.17;;
36391;SDS011;22639;42.690;23.356;2023-02-10T15:25:22;41.60;;;26.40;;
36391;SDS011;22639;42.690;23.356;2023-02-10T15:27:48;45.33;;;26.73;;
36391;SDS011;22639;42.690;23.356;2023-02-10T15:30:21;45.83;;;27.13;;
36391;SDS011;22639;42.690;23.356;2023-02-10T15:32:48;47.90;;;28.97;;
36391;SDS011;22639;42.690;23.356;2023-02-10T15:35:14;49.30;;;29.53;;
36391;SDS011;22639;42.690;23.356;2023-02-10T15:37:39;46.73;;;27.00;;
36391;SDS011;22639;42.690;23.356;2023-02-10T15:40:24;45.93;;;26.53;;
36391;SDS011;22639;42.690;23.356;2023-02-10T15:43:02;43.50;;;27.37;;
36391;SDS011;22639;42.690;23.356;2023-02-10T15:45:27;42.53;;;27.20;;
36391;SDS011;22639;42.690;23.356;2023-02-10T15:50:25;43.73;;;27.27;;
36391;SDS011;22639;42.690;23.356;2023-02-10T15:52:50;49.70;;;27.90;;
36391;SDS011;22639;42.690;23.356;2023-02-10T15:55:19;44.37;;;27.87;;
36391;SDS011;22639;42.690;23.356;2023-02-10T15:57:45;44.20;;;28.27;;
36391;SDS011;22639;42.690;23.356;2023-02-10T16:00:15;53.90;;;28.50;;
36391;SDS011;22639;42.690;23.356;2023-02-10T16:02:41;45.90;;;28.50;;
36391;SDS011;22639;42.690;23.356;2023-02-10T16:05:06;47.13;;;28.60;;
36391;SDS011;22639;42.690;23.356;2023-02-10T16:07:31;44.63;;;26.13;;
36391;SDS011;22639;42.690;23.356;2023-02-10T16:09:57;49.20;;;28.83;;